createdAt,value
2017-04-04T00:00:18.377Z,988.39
2017-04-04T00:01:28.630Z,988.39
2017-04-04T00:02:38.887Z,988.43
2017-04-04T00:03:49.139Z,988.45
2017-04-04T00:04:59.390Z,988.44
2017-04-04T00:06:09.383Z,988.39
2017-04-04T00:07:19.638Z,988.36
2017-04-04T00:08:29.895Z,988.41
2017-04-04T00:09:39.840Z,988.41
2017-04-04T00:10:50.096Z,988.39
2017-04-04T00:12:00.356Z,988.4
2017-04-04T00:13:10.638Z,988.37
2017-04-04T00:14:20.892Z,988.38
2017-04-04T00:15:30.838Z,988.39
2017-04-04T00:16:40.785Z,988.39
2017-04-04T00:17:51.038Z,988.42
2017-04-04T00:19:01.299Z,988.35
2017-04-04T00:20:11.240Z,988.36
2017-04-04T00:21:21.185Z,988.32
2017-04-04T00:22:31.445Z,988.31
2017-04-04T00:23:41.707Z,988.31
2017-04-04T00:24:51.964Z,988.35
2017-04-04T00:26:02.223Z,988.35
2017-04-04T00:27:12.483Z,988.28
2017-04-04T00:28:22.734Z,988.25
2017-04-04T00:29:32.986Z,988.24
2017-04-04T00:30:42.931Z,988.27
2017-04-04T00:31:53.181Z,988.23
2017-04-04T00:33:03.481Z,988.18
2017-04-04T00:34:13.423Z,988.13
2017-04-04T00:35:23.725Z,988.13
2017-04-04T00:36:34.017Z,988.21
2017-04-04T00:37:43.959Z,988.24
2017-04-04T00:38:54.212Z,988.19
2017-04-04T00:40:04.470Z,988.19
2017-04-04T00:41:14.727Z,988.17
2017-04-04T00:42:24.669Z,988.15
2017-04-04T00:43:34.606Z,988.14
2017-04-04T00:44:44.863Z,988.14
2017-04-04T00:45:55.137Z,988.14
2017-04-04T00:47:05.391Z,988.17
2017-04-04T00:48:15.648Z,988.26
2017-04-04T00:49:25.587Z,988.26
2017-04-04T00:50:35.843Z,988.26
2017-04-04T00:51:46.105Z,988.25
2017-04-04T00:52:56.356Z,988.29
2017-04-04T00:54:06.615Z,988.24
2017-04-04T00:55:16.872Z,988.28
2017-04-04T00:56:27.125Z,988.24
2017-04-04T00:57:37.381Z,988.2
2017-04-04T00:58:47.635Z,988.18
2017-04-04T00:59:57.578Z,988.18
2017-04-04T01:01:07.833Z,988.22
2017-04-04T01:02:18.095Z,988.23
2017-04-04T01:03:28.353Z,988.22
2017-04-04T01:04:38.608Z,988.21
2017-04-04T01:05:48.547Z,988.25
2017-04-04T01:06:58.809Z,988.21
2017-04-04T01:08:09.067Z,988.23
2017-04-04T01:09:19.323Z,988.26
2017-04-04T01:10:29.307Z,988.26
2017-04-04T01:11:39.249Z,988.24
2017-04-04T01:12:49.502Z,988.26
2017-04-04T01:13:59.758Z,988.24
2017-04-04T01:15:09.705Z,988.21
2017-04-04T01:16:19.958Z,988.26
2017-04-04T01:17:30.216Z,988.25
2017-04-04T01:18:40.467Z,988.22
2017-04-04T01:19:50.727Z,988.24
2017-04-04T01:21:00.980Z,988.24
2017-04-04T01:22:11.238Z,988.28
2017-04-04T01:23:21.503Z,988.24
2017-04-04T01:24:31.450Z,988.29
2017-04-04T01:25:41.701Z,988.29
2017-04-04T01:26:51.959Z,988.31
2017-04-04T01:28:02.219Z,988.3
2017-04-04T01:29:12.165Z,988.27
2017-04-04T01:30:21.473Z,988.23
2017-04-04T01:31:31.415Z,988.18
2017-04-04T01:32:41.717Z,988.14
2017-04-04T01:33:51.972Z,988.18
2017-04-04T01:35:01.915Z,988.15
2017-04-04T01:36:12.171Z,988.1
2017-04-04T01:37:22.425Z,988.12
2017-04-04T01:38:32.676Z,988.09
2017-04-04T01:39:42.928Z,988.08
2017-04-04T01:40:53.187Z,988.07
2017-04-04T01:42:03.488Z,988.1
2017-04-04T01:43:13.429Z,988.08
2017-04-04T01:44:23.688Z,988.06
2017-04-04T01:45:33.941Z,988.06
2017-04-04T01:46:44.200Z,988.01
2017-04-04T01:47:54.457Z,988
2017-04-04T01:49:04.404Z,987.97
2017-04-04T01:50:14.659Z,987.99
2017-04-04T01:51:24.921Z,987.98
2017-04-04T01:52:35.175Z,987.95
2017-04-04T01:53:45.427Z,987.99
2017-04-04T01:54:55.682Z,987.95
2017-04-04T01:56:05.938Z,987.9
2017-04-04T01:57:16.200Z,987.9
2017-04-04T01:58:26.145Z,987.87
2017-04-04T01:59:36.404Z,987.84
2017-04-04T02:00:46.663Z,987.8
2017-04-04T02:01:56.918Z,987.78
2017-04-04T02:03:07.176Z,987.75
2017-04-04T02:04:17.436Z,987.75
2017-04-04T02:05:27.694Z,987.71
2017-04-04T02:06:37.949Z,987.62
2017-04-04T02:07:48.224Z,987.59
2017-04-04T02:08:58.626Z,987.54
2017-04-04T02:10:08.888Z,987.5
2017-04-04T02:11:19.148Z,987.55
2017-04-04T02:12:29.405Z,987.48
2017-04-04T02:13:39.660Z,987.47
2017-04-04T02:14:49.914Z,987.45
2017-04-04T02:16:00.174Z,987.43
2017-04-04T02:17:10.429Z,987.43
2017-04-04T02:18:20.681Z,987.42
2017-04-04T02:19:30.935Z,987.43
2017-04-04T02:20:41.190Z,987.43
2017-04-04T02:21:51.134Z,987.38
2017-04-04T02:23:01.389Z,987.37
2017-04-04T02:24:11.647Z,987.49
2017-04-04T02:25:21.905Z,987.43
2017-04-04T02:26:32.155Z,987.46
2017-04-04T02:27:42.415Z,987.43
2017-04-04T02:28:52.668Z,987.49
2017-04-04T02:30:02.927Z,987.45
2017-04-04T02:31:13.195Z,987.51
2017-04-04T02:32:23.140Z,987.46
2017-04-04T02:33:33.400Z,987.44
2017-04-04T02:34:43.652Z,987.42
2017-04-04T02:35:53.951Z,987.46
2017-04-04T02:37:04.209Z,987.49
2017-04-04T02:38:14.524Z,987.51
2017-04-04T02:39:24.470Z,987.44
2017-04-04T02:40:34.723Z,987.5
2017-04-04T02:41:44.978Z,987.48
2017-04-04T02:42:55.234Z,987.43
2017-04-04T02:44:05.487Z,987.45
2017-04-04T02:45:15.739Z,987.44
2017-04-04T02:46:25.684Z,987.5
2017-04-04T02:47:35.933Z,987.53
2017-04-04T02:48:46.195Z,987.5
2017-04-04T02:49:56.146Z,987.54
2017-04-04T02:51:06.091Z,987.49
2017-04-04T02:52:16.391Z,987.44
2017-04-04T02:53:26.643Z,987.42
2017-04-04T02:54:36.906Z,987.4
2017-04-04T02:55:47.161Z,987.38
2017-04-04T02:56:57.105Z,987.3
2017-04-04T02:58:07.042Z,987.33
2017-04-04T02:59:17.295Z,987.34
2017-04-04T03:00:27.552Z,987.26
2017-04-04T03:01:37.813Z,987.25
2017-04-04T03:02:47.755Z,987.17
2017-04-04T03:03:57.694Z,987.14
2017-04-04T03:05:07.950Z,987.2
2017-04-04T03:06:18.205Z,987.18
2017-04-04T03:07:28.500Z,987.08
2017-04-04T03:08:38.758Z,987.02
2017-04-04T03:09:49.010Z,987.03
2017-04-04T03:10:59.265Z,987.05
2017-04-04T03:12:09.521Z,987.05
2017-04-04T03:13:19.774Z,987.04
2017-04-04T03:14:29.715Z,987.01
2017-04-04T03:15:39.965Z,987
2017-04-04T03:16:50.225Z,986.99
2017-04-04T03:18:00.482Z,986.93
2017-04-04T03:19:10.730Z,986.94
2017-04-04T03:20:20.984Z,986.92
2017-04-04T03:21:31.241Z,986.91
2017-04-04T03:22:41.500Z,986.89
2017-04-04T03:23:51.753Z,986.92
2017-04-04T03:25:02.005Z,986.92
2017-04-04T03:26:11.945Z,986.89
2017-04-04T03:27:22.203Z,986.86
2017-04-04T03:28:32.465Z,986.91
2017-04-04T03:29:42.715Z,986.91
2017-04-04T03:30:52.974Z,986.94
2017-04-04T03:32:03.231Z,986.96
2017-04-04T03:33:13.490Z,986.96
2017-04-04T03:34:23.437Z,987.04
2017-04-04T03:35:33.387Z,987.02
2017-04-04T03:36:43.644Z,986.96
2017-04-04T03:37:53.901Z,987.01
2017-04-04T03:39:03.845Z,986.96
2017-04-04T03:40:14.139Z,986.98
2017-04-04T03:41:24.085Z,986.96
2017-04-04T03:42:34.338Z,986.95
2017-04-04T03:43:44.283Z,986.96
2017-04-04T03:44:54.537Z,986.94
2017-04-04T03:46:04.796Z,986.98
2017-04-04T03:47:15.052Z,986.98
2017-04-04T03:48:25.311Z,986.97
2017-04-04T03:49:35.567Z,986.93
2017-04-04T03:50:45.822Z,986.92
2017-04-04T03:51:55.767Z,986.94
2017-04-04T03:53:05.704Z,986.94
2017-04-04T03:54:15.954Z,986.96
2017-04-04T03:55:25.896Z,986.94
2017-04-04T03:56:36.154Z,986.94
2017-04-04T03:57:46.410Z,986.92
2017-04-04T03:58:56.665Z,986.91
2017-04-04T04:00:06.922Z,986.89
2017-04-04T04:01:17.178Z,986.84
2017-04-04T04:02:27.435Z,986.79
2017-04-04T04:03:37.692Z,986.73
2017-04-04T04:04:47.634Z,986.69
2017-04-04T04:05:57.893Z,986.66
2017-04-04T04:07:08.151Z,986.6
2017-04-04T04:08:18.411Z,986.55
2017-04-04T04:09:28.660Z,986.56
2017-04-04T04:10:38.599Z,986.53
2017-04-04T04:11:48.547Z,986.51
2017-04-04T04:12:58.493Z,986.48
2017-04-04T04:14:08.753Z,986.48
2017-04-04T04:15:19.002Z,986.47
2017-04-04T04:16:28.937Z,986.43
2017-04-04T04:17:39.130Z,986.46
2017-04-04T04:18:49.380Z,986.4
2017-04-04T04:19:59.357Z,986.4
2017-04-04T04:21:09.633Z,986.34
2017-04-04T04:22:19.890Z,986.31
2017-04-04T04:23:30.175Z,986.3
2017-04-04T04:24:40.425Z,986.32
2017-04-04T04:25:50.362Z,986.31
2017-04-04T04:27:00.611Z,986.32
2017-04-04T04:28:10.551Z,986.34
2017-04-04T04:29:20.843Z,986.28
2017-04-04T04:30:31.112Z,986.31
2017-04-04T04:31:41.095Z,986.29
2017-04-04T04:32:51.043Z,986.34
2017-04-04T04:34:01.296Z,986.27
2017-04-04T04:35:11.547Z,986.27
2017-04-04T04:36:21.811Z,986.26
2017-04-04T04:37:32.069Z,986.26
2017-04-04T04:38:42.322Z,986.3
2017-04-04T04:39:52.586Z,986.34
2017-04-04T04:41:02.530Z,986.32
2017-04-04T04:42:12.784Z,986.38
2017-04-04T04:43:23.044Z,986.36
2017-04-04T04:44:33.295Z,986.38
2017-04-04T04:45:43.553Z,986.39
2017-04-04T04:46:53.811Z,986.44
2017-04-04T04:48:04.072Z,986.44
2017-04-04T04:49:14.010Z,986.39
2017-04-04T04:50:24.261Z,986.46
2017-04-04T04:51:34.526Z,986.44
2017-04-04T04:52:44.778Z,986.43
2017-04-04T04:53:55.050Z,986.42
2017-04-04T04:55:05.302Z,986.39
2017-04-04T04:56:15.562Z,986.4
2017-04-04T04:57:25.498Z,986.37
2017-04-04T04:58:35.760Z,986.38
2017-04-04T04:59:46.017Z,986.38
2017-04-04T05:00:56.270Z,986.35
2017-04-04T05:02:06.523Z,986.42
2017-04-04T05:03:16.845Z,986.33
2017-04-04T05:04:26.786Z,986.34
2017-04-04T05:05:37.097Z,986.35
2017-04-04T05:06:47.352Z,986.36
2017-04-04T05:07:57.603Z,986.42
2017-04-04T05:09:07.863Z,986.4
2017-04-04T05:10:18.116Z,986.38
2017-04-04T05:11:28.375Z,986.4
2017-04-04T05:12:38.633Z,986.38
2017-04-04T05:13:48.885Z,986.4
2017-04-04T05:14:58.818Z,986.38
2017-04-04T05:16:09.070Z,986.37
2017-04-04T05:17:19.325Z,986.39
2017-04-04T05:18:29.263Z,986.4
2017-04-04T05:19:39.554Z,986.43
2017-04-04T05:20:49.813Z,986.39
2017-04-04T05:22:00.085Z,986.36
2017-04-04T05:23:10.342Z,986.36
2017-04-04T05:24:20.595Z,986.37
2017-04-04T05:25:30.852Z,986.37
2017-04-04T05:26:41.103Z,986.37
2017-04-04T05:27:51.361Z,986.39
2017-04-04T05:29:01.636Z,986.39
2017-04-04T05:30:11.892Z,986.38
2017-04-04T05:31:21.839Z,986.35
2017-04-04T05:32:31.793Z,986.34
2017-04-04T05:33:42.091Z,986.36
2017-04-04T05:34:52.399Z,986.38
2017-04-04T05:36:02.666Z,986.42
2017-04-04T05:37:12.920Z,986.35
2017-04-04T05:38:23.176Z,986.36
2017-04-04T05:39:33.481Z,986.33
2017-04-04T05:40:43.741Z,986.4
2017-04-04T05:41:54.001Z,986.42
2017-04-04T05:43:03.936Z,986.46
2017-04-04T05:44:14.190Z,986.4
2017-04-04T05:45:24.130Z,986.45
2017-04-04T05:46:34.391Z,986.38
2017-04-04T05:47:44.692Z,986.43
2017-04-04T05:48:54.956Z,986.42
2017-04-04T05:50:05.209Z,986.37
2017-04-04T05:51:15.462Z,986.52
2017-04-04T05:52:25.711Z,986.59
2017-04-04T05:53:35.961Z,986.64
2017-04-04T05:54:46.219Z,986.66
2017-04-04T05:55:56.162Z,986.66
2017-04-04T05:57:06.131Z,986.59
2017-04-04T05:58:16.072Z,986.56
2017-04-04T05:59:26.324Z,986.54
2017-04-04T06:00:36.584Z,986.56
2017-04-04T06:01:46.522Z,986.56
2017-04-04T06:02:56.784Z,986.6
2017-04-04T06:04:06.770Z,986.52
2017-04-04T06:05:17.036Z,986.58
2017-04-04T06:06:26.989Z,986.55
2017-04-04T06:07:37.249Z,986.48
2017-04-04T06:08:47.513Z,986.49
2017-04-04T06:09:57.770Z,986.52
2017-04-04T06:11:07.725Z,986.52
2017-04-04T06:12:17.983Z,986.53
2017-04-04T06:13:28.239Z,986.62
2017-04-04T06:14:38.495Z,986.62
2017-04-04T06:15:48.753Z,986.63
2017-04-04T06:16:59.009Z,986.63
2017-04-04T06:18:08.948Z,986.57
2017-04-04T06:19:19.207Z,986.55
2017-04-04T06:20:29.462Z,986.59
2017-04-04T06:21:39.721Z,986.6
2017-04-04T06:22:49.975Z,986.49
2017-04-04T06:24:00.227Z,986.51
2017-04-04T06:25:10.485Z,986.45
2017-04-04T06:26:20.426Z,986.49
2017-04-04T06:27:30.375Z,986.47
2017-04-04T06:28:40.633Z,986.53
2017-04-04T06:29:50.881Z,986.49
2017-04-04T06:31:01.175Z,986.4
2017-04-04T06:32:10.490Z,986.6
2017-04-04T06:33:20.748Z,986.42
2017-04-04T06:34:31.009Z,986.41
2017-04-04T06:35:41.258Z,986.38
2017-04-04T06:36:51.519Z,986.37
2017-04-04T06:38:01.781Z,986.32
2017-04-04T06:39:11.409Z,986.34
2017-04-04T06:40:21.667Z,986.25
2017-04-04T06:41:31.927Z,986.25
2017-04-04T06:42:43.867Z,986.09
2017-04-04T06:43:54.125Z,986
2017-04-04T06:45:04.391Z,986
2017-04-04T06:46:14.376Z,985.99
2017-04-04T06:47:24.635Z,985.95
2017-04-04T06:48:34.578Z,985.84
2017-04-04T06:49:44.834Z,985.85
2017-04-04T06:50:55.107Z,985.85
2017-04-04T06:52:05.054Z,985.9
2017-04-04T06:53:14.999Z,985.83
2017-04-04T06:54:25.247Z,985.88
2017-04-04T06:55:35.188Z,985.82
2017-04-04T06:56:45.456Z,985.81
2017-04-04T06:57:55.398Z,985.72
2017-04-04T06:59:05.339Z,985.66
2017-04-04T07:00:15.605Z,985.55
2017-04-04T07:01:25.550Z,985.56
2017-04-04T07:02:35.807Z,985.55
2017-04-04T07:03:46.077Z,985.61
2017-04-04T07:04:56.378Z,985.63
2017-04-04T07:06:06.639Z,985.63
2017-04-04T07:07:16.940Z,985.61
2017-04-04T07:08:27.194Z,985.6
2017-04-04T07:09:37.139Z,985.61
2017-04-04T07:10:47.400Z,985.65
2017-04-04T07:11:57.340Z,985.66
2017-04-04T07:13:07.599Z,985.61
2017-04-04T07:14:17.542Z,985.59
2017-04-04T07:15:27.476Z,985.59
2017-04-04T07:16:37.735Z,985.54
2017-04-04T07:17:47.992Z,985.51
2017-04-04T07:18:58.288Z,985.53
2017-04-04T07:20:08.543Z,985.49
2017-04-04T07:21:18.794Z,985.46
2017-04-04T07:22:28.424Z,985.41
2017-04-04T07:23:38.676Z,985.4
2017-04-04T07:24:48.930Z,985.39
2017-04-04T07:25:59.189Z,985.47
2017-04-04T07:27:09.447Z,985.46
2017-04-04T07:28:19.703Z,985.52
2017-04-04T07:29:29.644Z,985.67
2017-04-04T07:30:39.901Z,985.6
2017-04-04T07:31:49.843Z,985.61
2017-04-04T07:33:00.103Z,985.59
2017-04-04T07:34:10.361Z,985.57
2017-04-04T07:35:20.614Z,985.6
2017-04-04T07:36:30.865Z,985.59
2017-04-04T07:37:40.499Z,985.57
2017-04-04T07:38:50.753Z,985.59
2017-04-04T07:40:01.014Z,985.6
2017-04-04T07:41:10.958Z,985.69
2017-04-04T07:42:21.219Z,985.77
2017-04-04T07:43:31.169Z,985.85
2017-04-04T07:44:41.428Z,985.79
2017-04-04T07:45:51.056Z,985.73
2017-04-04T07:47:01.313Z,985.69
2017-04-04T07:48:11.568Z,985.63
2017-04-04T07:49:21.819Z,985.62
2017-04-04T07:50:32.085Z,985.6
2017-04-04T07:51:42.341Z,985.56
2017-04-04T07:52:52.599Z,985.64
2017-04-04T07:54:02.854Z,985.66
2017-04-04T07:55:13.115Z,985.7
2017-04-04T07:56:23.371Z,985.6
2017-04-04T07:57:33.326Z,985.56
2017-04-04T07:58:42.960Z,985.59
2017-04-04T07:59:53.223Z,985.6
2017-04-04T08:01:03.484Z,985.5
2017-04-04T08:02:13.741Z,985.5
2017-04-04T08:03:23.697Z,985.48
2017-04-04T08:04:33.961Z,985.46
2017-04-04T08:05:44.220Z,985.48
2017-04-04T08:06:54.168Z,985.47
2017-04-04T08:08:04.429Z,985.46
2017-04-04T08:09:14.377Z,985.47
2017-04-04T08:10:24.323Z,985.43
2017-04-04T08:11:34.584Z,985.45
2017-04-04T08:12:44.843Z,985.43
2017-04-04T08:13:55.103Z,985.38
2017-04-04T08:15:05.097Z,985.38
2017-04-04T08:16:15.368Z,985.33
2017-04-04T08:17:25.630Z,985.33
2017-04-04T08:18:35.579Z,985.27
2017-04-04T08:19:45.520Z,985.2
2017-04-04T08:20:55.779Z,985.2
2017-04-04T08:22:06.040Z,985.22
2017-04-04T08:23:16.301Z,985.21
2017-04-04T08:24:26.553Z,985.19
2017-04-04T08:25:36.495Z,985.28
2017-04-04T08:26:46.449Z,985.19
2017-04-04T08:27:56.716Z,985.17
2017-04-04T08:29:06.974Z,985.22
2017-04-04T08:30:16.600Z,985.21
2017-04-04T08:31:26.228Z,985.17
2017-04-04T08:32:36.484Z,985.24
2017-04-04T08:33:46.745Z,985.38
2017-04-04T08:34:57.002Z,985.44
2017-04-04T08:36:07.308Z,985.42
2017-04-04T08:37:17.567Z,985.44
2017-04-04T08:38:27.829Z,985.49
2017-04-04T08:39:37.145Z,985.52
2017-04-04T08:40:47.091Z,985.54
2017-04-04T08:41:57.040Z,985.48
2017-04-04T08:43:07.292Z,985.34
2017-04-04T08:44:17.545Z,985.38
2017-04-04T08:45:27.487Z,985.28
2017-04-04T08:46:37.748Z,985.27
2017-04-04T08:47:48.008Z,985.26
2017-04-04T08:48:57.955Z,985.32
2017-04-04T08:50:08.214Z,985.4
2017-04-04T08:51:18.162Z,985.39
2017-04-04T08:52:28.113Z,985.34
2017-04-04T08:53:38.376Z,985.26
2017-04-04T08:54:48.067Z,985.23
2017-04-04T08:55:58.347Z,985.25
2017-04-04T08:57:08.292Z,985.28
2017-04-04T08:58:18.241Z,985.22
2017-04-04T08:59:28.505Z,985.23
2017-04-04T09:00:38.450Z,985.24
2017-04-04T09:01:48.709Z,985.21
2017-04-04T09:02:58.974Z,985.16
2017-04-04T09:04:09.004Z,985.18
2017-04-04T09:05:19.449Z,985.25
2017-04-04T09:06:29.904Z,985.22
2017-04-04T09:07:39.885Z,985.21
2017-04-04T09:08:50.148Z,985.17
2017-04-04T09:10:00.402Z,985.19
2017-04-04T09:11:10.346Z,985.2
2017-04-04T09:12:20.602Z,985.16
2017-04-04T09:13:30.863Z,985.1
2017-04-04T09:14:41.157Z,985.11
2017-04-04T09:15:51.419Z,985.17
2017-04-04T09:17:01.679Z,985.06
2017-04-04T09:18:11.946Z,985.17
2017-04-04T09:19:22.211Z,985.19
2017-04-04T09:20:32.473Z,985.07
2017-04-04T09:21:42.729Z,985.09
2017-04-04T09:22:52.691Z,985.1
2017-04-04T09:24:02.955Z,985.12
2017-04-04T09:25:12.908Z,985.11
2017-04-04T09:26:23.167Z,985.08
2017-04-04T09:27:33.430Z,985.15
2017-04-04T09:28:43.694Z,985.06
2017-04-04T09:29:52.696Z,985.05
2017-04-04T09:31:02.997Z,985.06
2017-04-04T09:32:13.259Z,985.02
2017-04-04T09:33:23.203Z,985
2017-04-04T09:34:33.145Z,984.93
2017-04-04T09:35:43.408Z,985
2017-04-04T09:36:53.379Z,985.02
2017-04-04T09:38:03.636Z,984.97
2017-04-04T09:39:13.899Z,984.99
2017-04-04T09:40:24.160Z,985.02
2017-04-04T09:41:34.417Z,985.02
2017-04-04T09:42:44.046Z,984.99
2017-04-04T09:43:54.302Z,985.01
2017-04-04T09:45:04.561Z,985.09
2017-04-04T09:46:14.821Z,985.11
2017-04-04T09:47:25.077Z,985.06
2017-04-04T09:48:35.023Z,985.06
2017-04-04T09:49:45.285Z,985.06
2017-04-04T09:50:55.572Z,985.05
2017-04-04T09:52:05.829Z,984.99
2017-04-04T09:53:15.457Z,985.07
2017-04-04T09:54:25.405Z,985.06
2017-04-04T09:55:35.747Z,985.12
2017-04-04T09:56:45.698Z,985.2
2017-04-04T09:57:55.964Z,985.12
2017-04-04T09:59:06.227Z,985.01
2017-04-04T10:00:16.485Z,984.97
2017-04-04T10:01:26.745Z,984.82
2017-04-04T10:02:36.694Z,984.77
2017-04-04T10:03:46.953Z,984.8
2017-04-04T10:04:56.900Z,984.7
2017-04-04T10:06:06.845Z,984.58
2017-04-04T10:07:16.792Z,984.62
2017-04-04T10:08:27.053Z,984.55
2017-04-04T10:09:37.005Z,984.55
2017-04-04T10:10:47.265Z,984.57
2017-04-04T10:11:57.525Z,984.5
2017-04-04T10:13:07.473Z,984.41
2017-04-04T10:14:17.731Z,984.38
2017-04-04T10:15:27.994Z,984.35
2017-04-04T10:16:37.954Z,984.38
2017-04-04T10:17:47.911Z,984.37
2017-04-04T10:18:58.170Z,984.38
2017-04-04T10:20:08.430Z,984.39
2017-04-04T10:21:18.688Z,984.42
2017-04-04T10:22:28.947Z,984.45
2017-04-04T10:23:39.211Z,984.47
2017-04-04T10:24:49.194Z,984.48
2017-04-04T10:25:59.451Z,984.47
2017-04-04T10:27:09.708Z,984.52
2017-04-04T10:28:19.652Z,984.43
2017-04-04T10:29:29.593Z,984.4
2017-04-04T10:30:39.847Z,984.35
2017-04-04T10:31:50.114Z,984.46
2017-04-04T10:33:00.057Z,984.39
2017-04-04T10:34:10.318Z,984.26
2017-04-04T10:35:20.585Z,984.39
2017-04-04T10:36:30.843Z,984.25
2017-04-04T10:37:40.789Z,984.2
2017-04-04T10:38:51.046Z,984.23
2017-04-04T10:40:01.305Z,984.16
2017-04-04T10:41:11.570Z,984.1
2017-04-04T10:42:21.831Z,984.05
2017-04-04T10:43:32.094Z,984.03
2017-04-04T10:44:42.353Z,984.09
2017-04-04T10:45:52.618Z,984.05
2017-04-04T10:47:02.880Z,984.06
2017-04-04T10:48:12.831Z,984.02
2017-04-04T10:49:22.774Z,984.05
2017-04-04T10:50:32.717Z,984.12
2017-04-04T10:51:42.657Z,984.11
2017-04-04T10:52:52.601Z,984.1
2017-04-04T10:54:02.870Z,984.11
2017-04-04T10:55:12.817Z,984.1
2017-04-04T10:56:23.079Z,984.08
2017-04-04T10:57:33.026Z,984.2
2017-04-04T10:58:42.658Z,984.18
2017-04-04T10:59:52.912Z,984.18
2017-04-04T11:01:03.170Z,984.24
2017-04-04T11:02:13.433Z,984.22
2017-04-04T11:03:23.691Z,984.22
2017-04-04T11:04:33.946Z,984.17
2017-04-04T11:05:44.209Z,984.2
2017-04-04T11:06:54.480Z,984.18
2017-04-04T11:08:04.479Z,984.2
2017-04-04T11:09:14.734Z,984.07
2017-04-04T11:10:24.993Z,984.04
2017-04-04T11:11:35.249Z,983.96
2017-04-04T11:12:44.887Z,983.84
2017-04-04T11:13:54.522Z,983.91
2017-04-04T11:15:04.836Z,983.89
2017-04-04T11:16:15.102Z,983.92
2017-04-04T11:17:25.360Z,983.95
2017-04-04T11:18:35.621Z,984.11
2017-04-04T11:19:45.566Z,984.21
2017-04-04T11:20:55.509Z,984.24
2017-04-04T11:22:05.792Z,984.32
2017-04-04T11:23:15.746Z,984.32
2017-04-04T11:24:26.008Z,984.4
2017-04-04T11:25:36.288Z,984.14
2017-04-04T11:26:46.237Z,984.4
2017-04-04T11:27:56.190Z,984.36
2017-04-04T11:29:06.451Z,984.39
2017-04-04T11:30:16.399Z,984.31
2017-04-04T11:31:26.670Z,984.27
2017-04-04T11:32:36.933Z,984.28
2017-04-04T11:33:46.888Z,984.24
2017-04-04T11:34:57.156Z,984.33
2017-04-04T11:36:07.428Z,984.33
2017-04-04T11:37:17.065Z,984.35
2017-04-04T11:38:27.380Z,984.25
2017-04-04T11:39:37.645Z,984.36
2017-04-04T11:40:47.278Z,984.24
2017-04-04T11:41:57.542Z,984.22
2017-04-04T11:43:07.491Z,984.28
2017-04-04T11:44:17.759Z,984.22
2017-04-04T11:45:27.707Z,984.06
2017-04-04T11:46:37.657Z,984.04
2017-04-04T11:47:47.300Z,984.07
2017-04-04T11:48:57.259Z,984.1
2017-04-04T11:50:07.526Z,983.95
2017-04-04T11:51:17.790Z,983.51
2017-04-04T11:52:27.794Z,983.53
2017-04-04T11:53:37.747Z,983.66
2017-04-04T11:54:48.013Z,984.1
2017-04-04T11:55:57.965Z,983.55
2017-04-04T11:57:08.227Z,983.97
2017-04-04T11:58:18.490Z,983.96
2017-04-04T11:59:28.772Z,983.99
2017-04-04T12:00:39.060Z,983.95
2017-04-04T12:01:48.698Z,984.03
2017-04-04T12:02:58.964Z,983.91
2017-04-04T12:04:08.922Z,984.06
2017-04-04T12:05:19.191Z,984.19
2017-04-04T12:06:28.824Z,984.31
2017-04-04T12:07:39.096Z,984.25
2017-04-04T12:08:49.356Z,984.29
2017-04-04T12:09:59.622Z,984.41
2017-04-04T12:11:09.893Z,984.41
2017-04-04T12:12:19.850Z,984.51
2017-04-04T12:13:30.120Z,984.43
2017-04-04T12:14:40.381Z,984.38
2017-04-04T12:15:50.338Z,984.43
2017-04-04T12:17:00.613Z,984.46
2017-04-04T12:18:10.887Z,984.64
2017-04-04T12:19:21.152Z,984.62
2017-04-04T12:20:31.108Z,984.59
2017-04-04T12:21:41.067Z,984.61
2017-04-04T12:22:51.339Z,984.62
2017-04-04T12:24:01.297Z,984.63
2017-04-04T12:25:10.944Z,984.61
2017-04-04T12:26:21.222Z,984.56
2017-04-04T12:27:31.187Z,984.69
2017-04-04T12:28:41.452Z,984.69
2017-04-04T12:29:51.720Z,984.69
2017-04-04T12:31:01.990Z,984.56
2017-04-04T12:32:12.257Z,984.72
2017-04-04T12:33:22.530Z,984.78
2017-04-04T12:34:32.801Z,984.72
2017-04-04T12:35:43.074Z,984.62
2017-04-04T12:36:53.033Z,984.61
2017-04-04T12:38:02.986Z,984.58
2017-04-04T12:39:13.267Z,984.19
2017-04-04T12:40:23.236Z,984.45
2017-04-04T12:41:33.517Z,984.46
2017-04-04T12:42:43.160Z,983.66
2017-04-04T12:43:53.116Z,983.44
2017-04-04T12:45:03.068Z,984.15
2017-04-04T12:46:13.034Z,983.77
2017-04-04T12:47:23.302Z,983.68
2017-04-04T12:48:33.572Z,984.57
2017-04-04T12:49:43.216Z,983.35
2017-04-04T12:50:53.177Z,983.43
2017-04-04T12:52:03.453Z,983.42
2017-04-04T12:53:13.734Z,983.55
2017-04-04T12:54:23.694Z,983.69
2017-04-04T12:55:33.653Z,983.68
2017-04-04T12:56:43.613Z,983.58
2017-04-04T12:57:53.567Z,983.35
2017-04-04T12:59:03.528Z,983.44
2017-04-04T13:00:13.481Z,983.55
2017-04-04T13:01:23.748Z,983.61
2017-04-04T13:02:33.702Z,983.47
2017-04-04T13:03:43.964Z,983.52
2017-04-04T13:04:54.229Z,983.42
2017-04-04T13:06:04.490Z,983.44
2017-04-04T13:07:14.761Z,983.23
2017-04-04T13:08:25.036Z,983.34
2017-04-04T13:09:34.984Z,983.27
2017-04-04T13:10:44.931Z,983.55
2017-04-04T13:11:55.204Z,983.35
2017-04-04T13:13:05.461Z,983.3
2017-04-04T13:14:15.410Z,983.44
2017-04-04T13:15:25.681Z,983.33
2017-04-04T13:16:35.949Z,983.09
2017-04-04T13:17:45.908Z,983.27
2017-04-04T13:18:56.176Z,983.06
2017-04-04T13:20:06.589Z,983.4
2017-04-04T13:21:16.851Z,983.26
2017-04-04T13:22:27.116Z,984.03
2017-04-04T13:23:37.383Z,983.85
2017-04-04T13:24:47.644Z,982.93
2017-04-04T13:25:59.912Z,983.31
2017-04-04T13:27:09.880Z,984.18
2017-04-04T13:28:20.147Z,983.91
2017-04-04T13:29:30.102Z,984.28
2017-04-04T13:30:40.054Z,983.12
2017-04-04T13:31:50.325Z,984.88
2017-04-04T13:33:00.275Z,983.78
2017-04-04T13:34:10.539Z,982.59
2017-04-04T13:35:20.805Z,982.86
2017-04-04T13:36:31.079Z,984.71
2017-04-04T13:37:40.408Z,983.24
2017-04-04T13:38:50.666Z,982.88
2017-04-04T13:40:00.616Z,984.37
2017-04-04T13:41:10.893Z,982.73
2017-04-04T13:42:21.221Z,982.68
2017-04-04T13:43:31.491Z,983.12
2017-04-04T13:44:41.440Z,982.55
2017-04-04T13:45:51.088Z,982.79
2017-04-04T13:47:01.042Z,984.3
2017-04-04T13:48:10.994Z,984.11
2017-04-04T13:49:21.257Z,984.08
2017-04-04T13:50:31.527Z,983.46
2017-04-04T13:51:41.813Z,983.73
2017-04-04T13:52:51.771Z,982.69
2017-04-04T13:54:02.042Z,983.04
2017-04-04T13:55:11.993Z,983.11
2017-04-04T13:56:22.264Z,983.04
2017-04-04T13:57:32.238Z,982.93
2017-04-04T13:58:42.727Z,982.16
2017-04-04T13:59:52.678Z,983.08
2017-04-04T14:01:02.656Z,982.7
2017-04-04T14:02:12.922Z,982.71
2017-04-04T14:03:23.186Z,982.84
2017-04-04T14:04:33.455Z,982.77
2017-04-04T14:05:43.734Z,982.62
2017-04-04T14:06:53.689Z,982.42
2017-04-04T14:08:03.957Z,983.09
2017-04-04T14:09:13.915Z,983.11
2017-04-04T14:10:24.179Z,982.79
2017-04-04T14:11:34.443Z,982.85
2017-04-04T14:12:44.710Z,982.87
2017-04-04T14:13:54.977Z,983.22
2017-04-04T14:15:05.243Z,983.56
2017-04-04T14:16:15.202Z,983.7
2017-04-04T14:17:25.473Z,983.7
2017-04-04T14:18:35.430Z,983.59
2017-04-04T14:19:45.383Z,983.67
2017-04-04T14:20:55.349Z,983.77
2017-04-04T14:22:05.622Z,983.84
2017-04-04T14:23:14.635Z,983.79
2017-04-04T14:24:24.273Z,982.91
2017-04-04T14:25:34.240Z,983.81
2017-04-04T14:26:44.514Z,983.92
2017-04-04T14:27:54.829Z,983.96
2017-04-04T14:29:04.786Z,984
2017-04-04T14:30:15.061Z,983.9
2017-04-04T14:31:25.346Z,983.92
2017-04-04T14:32:35.404Z,983.9
2017-04-04T14:33:46.617Z,983.83
2017-04-04T14:34:57.522Z,983.72
2017-04-04T14:36:08.565Z,983.59
2017-04-04T14:37:19.569Z,983.5
2017-04-04T14:38:30.667Z,983.42